Time;durP1;ratioP1;P1;durP2;ratioP2;P2;SDS_P1;SDS_P2;PMS_P1;PMS_P2;Temp;Humidity;BMP_temperature;BMP_pressure;BME280_temperature;BME280_humidity;BME280_pressure;Samples;Min_cycle;Max_cycle;Signal;HPM_P1;HPM_P2
2023/05/20 00:01:03;;;;;;;12.45;9.32;;;18.80;82.20;;;;;;6178933;22;20078;-56
2023/05/20 00:03:29;;;;;;;11.93;9.48;;;18.70;82.10;;;;;;6178516;22;20005;-57
2023/05/20 00:05:54;;;;;;;10.80;9.23;;;18.70;82.00;;;;;;6179544;22;20016;-56
2023/05/20 00:08:20;;;;;;;10.55;9.45;;;18.70;82.10;;;;;;6179431;22;20017;-57
2023/05/20 00:10:46;;;;;;;10.45;9.15;;;18.70;82.10;;;;;;6179235;22;20397;-56
2023/05/20 00:13:11;;;;;;;10.27;9.27;;;18.70;82.40;;;;;;6179176;22;20017;-57
2023/05/20 00:15:37;;;;;;;10.45;9.25;;;18.70;82.60;;;;;;6179686;22;20002;-56
2023/05/20 00:18:03;;;;;;;10.68;9.52;;;18.60;82.50;;;;;;6178242;22;20005;-56
2023/05/20 00:20:29;;;;;;;11.40;10.30;;;18.60;82.70;;;;;;6179559;22;20076;-56
2023/05/20 00:22:55;;;;;;;10.20;9.18;;;18.60;82.70;;;;;;6179385;22;20013;-56
2023/05/20 00:25:20;;;;;;;12.60;9.70;;;18.60;82.60;;;;;;6179983;22;20058;-56
2023/05/20 00:27:46;;;;;;;12.30;9.70;;;18.60;82.70;;;;;;6178319;22;20005;-56
2023/05/20 00:30:12;;;;;;;10.32;9.00;;;18.60;83.00;;;;;;6179121;22;20017;-56
2023/05/20 00:32:38;;;;;;;10.57;9.57;;;18.50;83.30;;;;;;6179352;22;20063;-56
2023/05/20 00:35:04;;;;;;;10.75;9.30;;;18.50;83.40;;;;;;6178307;22;20084;-56
2023/05/20 00:37:30;;;;;;;10.20;9.20;;;18.50;83.60;;;;;;6177526;22;20043;-56
2023/05/20 00:39:56;;;;;;;10.52;9.35;;;18.50;83.60;;;;;;6178980;23;20001;-56
2023/05/20 00:42:26;;;;;;;10.77;8.77;;;18.50;83.70;;;;;;6176514;23;20015;-55
2023/05/20 00:44:52;;;;;;;9.25;8.35;;;18.50;83.70;;;;;;6177395;22;20017;-56
2023/05/20 00:47:22;;;;;;;11.27;9.13;;;18.50;83.90;;;;;;6178258;22;20058;-56
2023/05/20 00:49:50;;;;;;;11.07;9.77;;;18.40;84.20;;;;;;6178415;22;20005;-56
2023/05/20 00:52:20;;;;;;;10.40;9.35;;;18.40;84.40;;;;;;6179350;22;20012;-56
2023/05/20 00:54:46;;;;;;;11.45;9.23;;;18.40;84.50;;;;;;6179208;22;20083;-57
2023/05/20 00:57:12;;;;;;;11.38;9.63;;;18.40;84.70;;;;;;6178901;22;20011;-56
2023/05/20 00:59:38;;;;;;;10.38;9.25;;;18.40;84.60;;;;;;6178964;22;20076;-56
2023/05/20 01:02:04;;;;;;;10.45;8.85;;;18.40;84.80;;;;;;6176611;22;20028;-57
2023/05/20 01:04:31;;;;;;;10.73;9.23;;;18.40;84.80;;;;;;6178308;22;20459;-55
2023/05/20 01:06:59;;;;;;;11.15;9.38;;;18.30;84.70;;;;;;6177730;22;20009;-57
2023/05/20 01:09:25;;;;;;;11.38;9.15;;;18.30;84.80;;;;;;6178075;22;20021;-57
2023/05/20 01:12:04;;;;;;;11.57;8.95;;;18.30;84.80;;;;;;6179665;22;20451;-57
2023/05/20 01:14:36;;;;;;;9.82;8.70;;;18.30;84.70;;;;;;6282172;22;20006;-56
2023/05/20 01:17:08;;;;;;;9.88;8.88;;;18.30;85.20;;;;;;6178139;22;20001;-57
2023/05/20 01:19:44;;;;;;;13.23;9.02;;;18.30;85.20;;;;;;6178799;22;20001;-57
2023/05/20 01:22:11;;;;;;;10.57;9.48;;;18.30;85.10;;;;;;6177454;22;20319;-57
2023/05/20 01:24:47;;;;;;;11.60;10.40;;;18.20;85.80;;;;;;6178406;22;20008;-57
2023/05/20 01:27:13;;;;;;;10.93;9.82;;;18.20;85.80;;;;;;6179058;22;20009;-57
2023/05/20 01:29:40;;;;;;;11.52;9.00;;;18.20;85.90;;;;;;6177992;22;20444;-56
2023/05/20 01:32:10;;;;;;;10.35;9.32;;;18.10;86.30;;;;;;6178202;22;20405;-57
2023/05/20 01:34:37;;;;;;;11.13;10.00;;;18.10;86.50;;;;;;6178231;22;20020;-56
2023/05/20 01:37:04;;;;;;;11.02;10.02;;;18.10;86.70;;;;;;6177979;22;20037;-56
2023/05/20 01:39:32;;;;;;;11.13;10.00;;;18.10;86.90;;;;;;6178150;22;20074;-56
2023/05/20 01:42:00;;;;;;;11.13;9.73;;;18.10;87.20;;;;;;6178264;22;20044;-57
2023/05/20 01:44:26;;;;;;;11.05;9.82;;;18.00;86.90;;;;;;6178236;22;20009;-56
2023/05/20 01:46:53;;;;;;;10.75;9.52;;;18.00;87.00;;;;;;6178094;23;20015;-56
2023/05/20 01:49:18;;;;;;;10.98;9.77;;;18.00;87.90;;;;;;6177673;23;20005;-56
2023/05/20 01:51:44;;;;;;;10.85;9.75;;;18.00;87.20;;;;;;6178171;22;20110;-56
2023/05/20 01:54:10;;;;;;;11.00;9.02;;;17.90;87.20;;;;;;6177874;22;20008;-57
2023/05/20 01:56:35;;;;;;;10.70;9.70;;;17.90;87.20;;;;;;6178831;22;20005;-56
2023/05/20 01:59:01;;;;;;;11.77;10.10;;;17.90;87.50;;;;;;6177916;22;20080;-56
2023/05/20 02:01:26;;;;;;;10.85;9.75;;;17.90;87.90;;;;;;6179415;22;20004;-56
2023/05/20 02:03:52;;;;;;;10.45;9.38;;;17.90;88.00;;;;;;6178597;22;20795;-56
2023/05/20 02:06:18;;;;;;;11.35;10.15;;;17.90;88.10;;;;;;6179454;22;20425;-57
2023/05/20 02:08:43;;;;;;;10.82;9.73;;;17.90;88.20;;;;;;6179524;22;20009;-57
2023/05/20 02:11:09;;;;;;;12.73;11.23;;;17.90;88.40;;;;;;6178089;22;20012;-57
2023/05/20 02:13:35;;;;;;;10.80;9.10;;;17.80;88.30;;;;;;6179360;22;20013;-57
2023/05/20 02:16:00;;;;;;;11.02;9.85;;;17.80;88.40;;;;;;6179349;22;20440;-56
2023/05/20 02:18:26;;;;;;;10.70;9.60;;;17.80;88.50;;;;;;6179313;22;20333;-56
2023/05/20 02:20:52;;;;;;;10.18;9.13;;;17.80;88.70;;;;;;6179457;22;20005;-57
2023/05/20 02:23:18;;;;;;;12.98;11.68;;;17.80;88.80;;;;;;6179735;23;20013;-56
2023/05/20 02:25:44;;;;;;;14.73;11.85;;;17.80;88.70;;;;;;6179797;22;20006;-55
2023/05/20 02:28:10;;;;;;;11.93;10.48;;;17.80;88.80;;;;;;6178505;22;20085;-57
2023/05/20 02:30:38;;;;;;;11.57;10.40;;;17.80;88.80;;;;;;6178943;22;20421;-57
2023/05/20 02:33:05;;;;;;;11.75;10.55;;;17.80;88.70;;;;;;6179581;22;20009;-56
2023/05/20 02:35:31;;;;;;;11.68;10.57;;;17.80;88.50;;;;;;6180447;22;19997;-55
2023/05/20 02:37:57;;;;;;;12.48;11.18;;;17.80;88.40;;;;;;6181562;22;20017;-55
2023/05/20 02:40:22;;;;;;;12.82;10.30;;;17.80;88.30;;;;;;6179799;23;20001;-57
2023/05/20 02:42:48;;;;;;;13.73;9.63;;;17.80;88.40;;;;;;6180338;22;20024;-56
2023/05/20 02:45:14;;;;;;;10.38;9.13;;;17.80;88.30;;;;;;6282886;22;20036;-56
2023/05/20 02:47:40;;;;;;;10.50;9.45;;;17.80;88.20;;;;;;6180092;23;20023;-55
2023/05/20 02:50:06;;;;;;;10.93;9.68;;;17.80;88.00;;;;;;6178683;22;20005;-56
2023/05/20 02:52:32;;;;;;;11.30;9.50;;;17.90;87.90;;;;;;6179375;22;20005;-57
2023/05/20 02:54:58;;;;;;;9.95;9.05;;;17.90;88.20;;;;;;6179808;22;20075;-56
2023/05/20 02:57:26;;;;;;;10.38;9.25;;;17.90;88.10;;;;;;6179900;22;20468;-56
2023/05/20 02:59:51;;;;;;;11.18;9.85;;;17.90;88.20;;;;;;6179767;22;20537;-56
2023/05/20 03:02:17;;;;;;;9.75;8.85;;;17.90;87.90;;;;;;6179773;22;20058;-56
2023/05/20 03:04:45;;;;;;;11.55;9.52;;;18.00;87.50;;;;;;6179676;22;20005;-56
2023/05/20 03:07:11;;;;;;;11.70;9.35;;;18.00;87.50;;;;;;6181245;22;20015;-56
2023/05/20 03:09:37;;;;;;;10.30;9.30;;;18.00;87.20;;;;;;6179385;22;20469;-57
2023/05/20 03:12:02;;;;;;;10.70;9.27;;;18.10;87.00;;;;;;6179707;22;20074;-57
2023/05/20 03:14:28;;;;;;;9.38;8.40;;;18.20;86.80;;;;;;6178294;22;20012;-57
2023/05/20 03:16:56;;;;;;;11.38;9.80;;;18.30;86.50;;;;;;6283534;22;20005;-57
2023/05/20 03:19:22;;;;;;;11.02;8.70;;;18.30;86.50;;;;;;6178854;22;20445;-56
2023/05/20 03:21:49;;;;;;;10.18;9.10;;;18.40;86.10;;;;;;6180229;22;20028;-57
2023/05/20 03:24:15;;;;;;;8.95;8.05;;;18.50;86.00;;;;;;6179483;22;20013;-55
2023/05/20 03:26:45;;;;;;;10.02;9.02;;;18.60;85.80;;;;;;6180585;22;20008;-57
2023/05/20 03:29:10;;;;;;;9.93;8.40;;;18.80;85.70;;;;;;6180775;22;20019;-57
2023/05/20 03:31:36;;;;;;;9.82;8.82;;;18.90;85.60;;;;;;6180386;22;20101;-56
2023/05/20 03:34:02;;;;;;;9.57;8.57;;;19.10;85.40;;;;;;6178969;22;20009;-56
2023/05/20 03:36:27;;;;;;;9.52;7.82;;;19.30;84.80;;;;;;6179497;22;20097;-57
2023/05/20 03:38:53;;;;;;;8.85;7.95;;;19.50;84.20;;;;;;6179352;22;20002;-57
2023/05/20 03:41:19;;;;;;;9.82;8.43;;;19.80;83.40;;;;;;6179888;22;20005;-57
2023/05/20 03:43:45;;;;;;;8.82;7.35;;;20.20;82.20;;;;;;6181241;22;20005;-57
2023/05/20 03:46:11;;;;;;;9.25;7.60;;;20.60;80.80;;;;;;6179574;22;20012;-57
2023/05/20 03:48:36;;;;;;;8.50;7.13;;;21.00;79.30;;;;;;6178118;22;20079;-57
2023/05/20 03:51:02;;;;;;;8.80;7.05;;;21.50;77.80;;;;;;6177717;22;20080;-55
2023/05/20 03:53:28;;;;;;;8.23;7.32;;;22.10;76.00;;;;;;6178849;22;20080;-57
2023/05/20 03:55:53;;;;;;;9.50;6.90;;;22.70;73.80;;;;;;6178427;22;20487;-57
2023/05/20 03:58:22;;;;;;;7.30;6.57;;;23.40;71.70;;;;;;6176629;22;20004;-57
2023/05/20 04:00:48;;;;;;;8.05;6.78;;;24.00;69.60;;;;;;6280126;22;20779;-57
2023/05/20 04:03:14;;;;;;;8.18;6.78;;;24.60;67.60;;;;;;6177810;23;20027;-56
2023/05/20 04:05:40;;;;;;;9.82;6.53;;;25.20;66.10;;;;;;6178618;22;20015;-57
2023/05/20 04:08:06;;;;;;;8.07;5.97;;;25.70;64.70;;;;;;6179154;22;20009;-57
2023/05/20 04:10:32;;;;;;;5.82;5.32;;;26.20;63.70;;;;;;6178427;22;20009;-57
2023/05/20 04:12:58;;;;;;;6.57;5.78;;;26.60;62.30;;;;;;6177470;22;20008;-58
2023/05/20 04:15:24;;;;;;;8.23;6.00;;;27.00;61.00;;;;;;6178746;22;19997;-58
2023/05/20 04:17:51;;;;;;;7.28;6.55;;;27.40;60.20;;;;;;6178536;22;20012;-58
2023/05/20 04:20:17;;;;;;;6.35;5.75;;;27.80;59.30;;;;;;6178036;22;20001;-57
2023/05/20 04:22:44;;;;;;;7.38;5.60;;;28.20;58.90;;;;;;6178822;22;20367;-57
2023/05/20 04:25:10;;;;;;;8.75;5.75;;;28.70;58.30;;;;;;6178712;23;20066;-57
2023/05/20 04:27:38;;;;;;;6.18;5.53;;;29.10;57.30;;;;;;6178291;22;20001;-57
2023/05/20 04:30:05;;;;;;;7.30;5.13;;;29.30;56.50;;;;;;6178622;22;20035;-57
2023/05/20 04:32:33;;;;;;;12.43;5.32;;;29.70;56.10;;;;;;6178172;22;20077;-57
2023/05/20 04:35:00;;;;;;;5.65;5.05;;;29.90;55.30;;;;;;6178082;23;20009;-56
2023/05/20 04:37:27;;;;;;;6.25;5.53;;;30.00;55.00;;;;;;6178443;22;20001;-57
2023/05/20 04:39:53;;;;;;;6.40;5.15;;;30.30;54.50;;;;;;6177931;22;20050;-57
2023/05/20 04:42:21;;;;;;;5.70;5.20;;;30.50;54.20;;;;;;6177732;22;20796;-57
2023/05/20 04:44:47;;;;;;;6.40;5.22;;;30.80;53.50;;;;;;6177854;22;20033;-57
2023/05/20 04:47:13;;;;;;;5.55;5.00;;;31.00;52.80;;;;;;6177996;22;20032;-57
2023/05/20 04:49:39;;;;;;;6.13;5.47;;;31.20;52.40;;;;;;6178214;22;20029;-58
2023/05/20 04:52:05;;;;;;;6.30;5.05;;;31.30;52.00;;;;;;6176928;23;20409;-57
2023/05/20 04:54:34;;;;;;;5.63;5.13;;;31.40;51.70;;;;;;6177908;22;20394;-57
2023/05/20 04:57:00;;;;;;;5.78;4.80;;;31.50;51.40;;;;;;6176967;22;20008;-56
2023/05/20 04:59:26;;;;;;;6.28;4.80;;;31.60;51.90;;;;;;6177386;22;20008;-57
2023/05/20 05:01:51;;;;;;;6.55;4.72;;;31.70;50.70;;;;;;6177421;22;20005;-57
2023/05/20 05:04:17;;;;;;;6.00;5.03;;;31.90;50.70;;;;;;6177793;22;20070;-57
2023/05/20 05:06:42;;;;;;;7.03;4.63;;;32.00;50.30;;;;;;6176837;22;20371;-58
2023/05/20 05:09:08;;;;;;;5.53;4.85;;;32.10;50.20;;;;;;6177957;22;20012;-57
2023/05/20 05:11:34;;;;;;;7.70;5.03;;;32.30;50.20;;;;;;6178121;22;20055;-58
2023/05/20 05:14:00;;;;;;;5.65;5.10;;;32.40;49.80;;;;;;6176355;22;20062;-57
2023/05/20 05:16:25;;;;;;;7.88;4.95;;;32.40;49.60;;;;;;6178186;22;19997;-57
2023/05/20 05:18:51;;;;;;;5.13;4.63;;;32.40;49.10;;;;;;6281792;22;20007;-56
2023/05/20 05:21:17;;;;;;;5.15;4.57;;;32.30;48.60;;;;;;6177822;22;20149;-57
2023/05/20 05:23:42;;;;;;;5.78;5.20;;;32.00;48.70;;;;;;6179394;22;20005;-58
2023/05/20 05:26:08;;;;;;;5.93;5.20;;;31.50;48.90;;;;;;6178608;22;20424;-57
2023/05/20 05:28:34;;;;;;;6.40;5.53;;;30.90;49.60;;;;;;6177074;22;20061;-58
2023/05/20 05:31:01;;;;;;;7.03;6.32;;;30.30;50.30;;;;;;6175361;22;20566;-55
2023/05/20 05:33:27;;;;;;;7.03;5.88;;;29.50;51.10;;;;;;6277767;22;20005;-57
2023/05/20 05:35:53;;;;;;;6.30;5.70;;;28.80;52.10;;;;;;6175633;22;20002;-57
2023/05/20 05:38:18;;;;;;;6.78;5.65;;;28.10;53.00;;;;;;6176809;22;20001;-58
2023/05/20 05:40:44;;;;;;;5.78;5.28;;;27.60;54.00;;;;;;6174854;22;20016;-56
2023/05/20 05:43:10;;;;;;;6.55;5.68;;;27.00;54.70;;;;;;6175701;22;20349;-56
2023/05/20 05:45:35;;;;;;;6.13;5.53;;;26.60;55.70;;;;;;6179058;22;20594;-57
2023/05/20 05:48:01;;;;;;;7.65;5.88;;;26.20;56.50;;;;;;6178963;23;20341;-58
2023/05/20 05:50:27;;;;;;;6.30;5.70;;;25.90;57.30;;;;;;6178019;22;20005;-57
2023/05/20 05:52:52;;;;;;;6.60;5.90;;;25.60;57.90;;;;;;6176325;22;20012;-56
2023/05/20 05:55:18;;;;;;;7.00;6.30;;;25.40;58.40;;;;;;6177209;22;20012;-57
2023/05/20 05:57:44;;;;;;;6.72;6.00;;;25.20;58.70;;;;;;6177416;22;20635;-56
2023/05/20 06:00:10;;;;;;;8.75;6.43;;;25.00;59.30;;;;;;6175288;22;20442;-57
2023/05/20 06:02:36;;;;;;;8.45;6.38;;;24.80;59.90;;;;;;6176182;22;20072;-57
2023/05/20 06:05:02;;;;;;;7.55;6.22;;;24.70;60.50;;;;;;6176810;22;20462;-56
2023/05/20 06:07:28;;;;;;;7.28;6.13;;;24.60;60.80;;;;;;6177738;22;20039;-56
2023/05/20 06:09:54;;;;;;;6.95;6.18;;;24.50;61.00;;;;;;6179127;22;20343;-57
2023/05/20 06:12:20;;;;;;;8.35;6.22;;;24.30;61.30;;;;;;6176324;22;20023;-56
2023/05/20 06:14:46;;;;;;;7.60;6.07;;;24.20;61.60;;;;;;6177458;22;20080;-57
2023/05/20 06:17:12;;;;;;;8.57;6.03;;;24.10;62.70;;;;;;6177627;22;20028;-57
2023/05/20 06:19:37;;;;;;;7.85;6.57;;;24.00;62.50;;;;;;6177752;22;20001;-56
2023/05/20 06:22:03;;;;;;;6.60;6.00;;;24.00;62.70;;;;;;6176043;22;20375;-57
2023/05/20 06:24:29;;;;;;;8.43;6.50;;;23.90;62.70;;;;;;6177453;23;20095;-57
2023/05/20 06:26:55;;;;;;;6.50;5.90;;;23.80;63.10;;;;;;6177946;22;20091;-58
2023/05/20 06:29:21;;;;;;;7.82;5.88;;;23.80;63.60;;;;;;6175829;22;20594;-56
2023/05/20 06:31:47;;;;;;;7.35;6.20;;;23.70;63.90;;;;;;6174434;22;20005;-57
2023/05/20 06:34:13;;;;;;;7.38;6.72;;;23.70;64.50;;;;;;6176104;22;20018;-57
2023/05/20 06:36:39;;;;;;;7.03;6.32;;;23.60;64.70;;;;;;6176930;22;20006;-57
2023/05/20 06:39:10;;;;;;;7.97;6.30;;;23.60;64.90;;;;;;6177775;22;20001;-57
2023/05/20 06:41:39;;;;;;;7.18;6.10;;;23.70;65.30;;;;;;6178542;22;20444;-56
2023/05/20 06:44:06;;;;;;;7.90;7.07;;;23.60;65.50;;;;;;6178463;22;20078;-57
2023/05/20 06:46:32;;;;;;;6.90;6.20;;;23.70;65.60;;;;;;6179902;22;20013;-57
2023/05/20 06:48:57;;;;;;;7.57;6.80;;;23.60;65.80;;;;;;6177954;22;20469;-57
2023/05/20 06:51:23;;;;;;;7.78;6.97;;;23.60;65.60;;;;;;6176944;22;20009;-57
2023/05/20 06:53:48;;;;;;;8.35;6.65;;;23.60;65.80;;;;;;6177446;22;20490;-57
2023/05/20 06:56:14;;;;;;;6.93;6.22;;;23.60;65.90;;;;;;6177687;22;20009;-55
2023/05/20 06:58:40;;;;;;;8.88;6.40;;;23.60;66.00;;;;;;6177517;22;20452;-58
2023/05/20 07:01:06;;;;;;;8.27;7.00;;;23.60;66.10;;;;;;6177136;22;20104;-57
2023/05/20 07:03:31;;;;;;;9.20;6.80;;;23.60;66.30;;;;;;6177349;22;20081;-57
2023/05/20 07:05:57;;;;;;;7.40;5.93;;;23.60;66.20;;;;;;6176631;22;20016;-57
2023/05/20 07:08:23;;;;;;;7.63;6.38;;;23.60;66.10;;;;;;6178288;22;20017;-57
2023/05/20 07:10:49;;;;;;;9.18;6.43;;;23.60;66.10;;;;;;6178090;22;20448;-58
2023/05/20 07:13:14;;;;;;;6.95;6.25;;;23.60;66.40;;;;;;6178265;22;20325;-57
2023/05/20 07:15:40;;;;;;;11.13;6.47;;;23.60;67.30;;;;;;6179055;22;20598;-58
2023/05/20 07:18:06;;;;;;;6.93;6.22;;;23.60;66.90;;;;;;6179720;22;20088;-58
2023/05/20 07:20:31;;;;;;;6.88;6.28;;;23.60;67.00;;;;;;6179528;22;20080;-55
2023/05/20 07:22:57;;;;;;;7.38;6.18;;;23.60;67.00;;;;;;6178767;22;20039;-57
2023/05/20 07:25:23;;;;;;;7.20;6.47;;;23.60;66.70;;;;;;6178366;22;20010;-57
2023/05/20 07:27:48;;;;;;;6.72;6.07;;;23.50;66.40;;;;;;6177163;22;20467;-57
2023/05/20 07:30:14;;;;;;;6.70;6.00;;;23.50;66.50;;;;;;6178073;23;19997;-58
2023/05/20 07:32:39;;;;;;;7.60;6.60;;;23.50;66.60;;;;;;6177738;22;20012;-57
2023/05/20 07:35:06;;;;;;;6.68;5.82;;;23.50;66.50;;;;;;6180235;22;20016;-58
2023/05/20 07:37:31;;;;;;;9.55;6.53;;;23.50;66.70;;;;;;6179331;22;20005;-57
2023/05/20 07:39:57;;;;;;;6.38;5.65;;;23.50;67.10;;;;;;6178908;22;20044;-56
2023/05/20 07:42:22;;;;;;;6.57;5.70;;;23.50;67.20;;;;;;6178820;22;20076;-57
2023/05/20 07:44:48;;;;;;;7.97;6.18;;;23.50;67.20;;;;;;6175464;22;20005;-57
2023/05/20 07:47:14;;;;;;;6.70;5.60;;;23.50;66.80;;;;;;6179052;22;20021;-56
2023/05/20 07:49:39;;;;;;;6.63;5.88;;;23.50;67.10;;;;;;6176530;22;20001;-57
2023/05/20 07:52:05;;;;;;;8.93;5.70;;;23.50;67.40;;;;;;6176939;22;20186;-57
2023/05/20 07:54:31;;;;;;;7.40;6.10;;;23.40;67.20;;;;;;6173553;23;20760;-57
2023/05/20 07:56:59;;;;;;;9.15;6.13;;;23.40;67.40;;;;;;6177316;22;20008;-58
2023/05/20 07:59:24;;;;;;;6.30;5.50;;;23.40;67.50;;;;;;6175741;22;20451;-56
2023/05/20 08:01:50;;;;;;;6.18;5.55;;;23.40;67.60;;;;;;6176588;22;20001;-56
2023/05/20 08:04:16;;;;;;;7.20;5.63;;;23.40;67.80;;;;;;6174924;22;20005;-57
2023/05/20 08:06:43;;;;;;;9.00;6.07;;;23.40;68.00;;;;;;6175184;22;20034;-57
2023/05/20 08:09:09;;;;;;;7.10;6.05;;;23.30;67.80;;;;;;6175312;22;20481;-57
2023/05/20 08:11:34;;;;;;;6.88;6.05;;;23.30;68.10;;;;;;6176274;22;20009;-56
2023/05/20 08:14:01;;;;;;;8.50;5.72;;;23.30;67.80;;;;;;6174542;22;20009;-56
2023/05/20 08:16:27;;;;;;;7.32;5.63;;;23.20;67.70;;;;;;6175089;22;20032;-57
2023/05/20 08:18:52;;;;;;;6.82;6.13;;;23.20;67.70;;;;;;6175754;22;20317;-57
2023/05/20 08:21:18;;;;;;;8.70;6.15;;;23.20;67.80;;;;;;6176375;22;20363;-57
2023/05/20 08:23:44;;;;;;;7.22;6.45;;;23.20;67.80;;;;;;6179160;22;20009;-57
2023/05/20 08:26:09;;;;;;;9.75;6.13;;;23.20;67.80;;;;;;6179247;22;20028;-57
2023/05/20 08:28:36;;;;;;;6.03;5.43;;;23.10;67.70;;;;;;6178365;22;20433;-57
2023/05/20 08:31:02;;;;;;;6.85;6.15;;;23.10;67.50;;;;;;6179322;23;20032;-57
2023/05/20 08:33:28;;;;;;;8.93;6.65;;;23.10;67.80;;;;;;6178278;23;20012;-58
2023/05/20 08:35:53;;;;;;;8.65;6.30;;;23.00;68.00;;;;;;6279956;22;20001;-57
2023/05/20 08:38:19;;;;;;;7.63;6.32;;;23.00;68.00;;;;;;6177945;22;20500;-56
2023/05/20 08:40:45;;;;;;;6.95;6.25;;;23.00;68.10;;;;;;6176726;22;20001;-56
2023/05/20 08:43:11;;;;;;;8.45;6.90;;;23.00;68.00;;;;;;6178072;22;20467;-58
2023/05/20 08:45:37;;;;;;;7.38;6.00;;;23.00;68.10;;;;;;6175663;22;20009;-57
2023/05/20 08:48:06;;;;;;;7.97;6.57;;;23.00;68.00;;;;;;6179803;22;20009;-57
2023/05/20 08:50:32;;;;;;;7.85;6.40;;;22.90;68.20;;;;;;6177414;22;20013;-57
2023/05/20 08:52:58;;;;;;;7.70;6.28;;;22.90;68.40;;;;;;6176919;22;20040;-58
2023/05/20 08:56:01;;;;;;;7.65;6.28;;;22.80;68.60;;;;;;6176367;22;20001;-57
2023/05/20 08:58:28;;;;;;;9.07;6.45;;;22.80;68.10;;;;;;6185575;22;20001;-57
2023/05/20 09:00:54;;;;;;;7.00;6.18;;;22.80;68.10;;;;;;6177925;22;20024;-57
2023/05/20 09:03:20;;;;;;;10.45;6.05;;;22.70;68.10;;;;;;6177796;22;20000;-57
2023/05/20 09:05:46;;;;;;;6.47;5.88;;;22.70;68.20;;;;;;6177460;22;20076;-57
2023/05/20 09:08:12;;;;;;;6.90;6.15;;;22.70;68.60;;;;;;6176082;23;20009;-57
2023/05/20 09:10:40;;;;;;;7.82;5.90;;;22.70;68.80;;;;;;6173417;22;20780;-58
2023/05/20 09:13:06;;;;;;;6.85;5.85;;;22.60;68.70;;;;;;6174214;22;20005;-58
2023/05/20 09:15:35;;;;;;;7.30;5.88;;;22.60;68.80;;;;;;6176923;22;20005;-57
2023/05/20 09:18:03;;;;;;;6.32;5.72;;;22.60;68.90;;;;;;6175283;22;20437;-58
2023/05/20 09:20:30;;;;;;;7.35;5.90;;;22.60;69.00;;;;;;6174003;22;20680;-56
2023/05/20 09:23:00;;;;;;;7.28;5.55;;;22.50;70.00;;;;;;6173132;22;20014;-56
2023/05/20 09:25:26;;;;;;;7.73;5.90;;;22.50;69.00;;;;;;6173153;22;20329;-57
2023/05/20 09:27:52;;;;;;;6.85;5.85;;;22.50;69.20;;;;;;6175180;22;20001;-57
2023/05/20 09:30:18;;;;;;;6.25;5.45;;;22.50;69.50;;;;;;6175210;22;20004;-57
2023/05/20 09:32:44;;;;;;;6.07;5.47;;;22.50;69.20;;;;;;6175891;22;20002;-56
2023/05/20 09:35:14;;;;;;;7.30;6.00;;;22.50;69.20;;;;;;6174654;23;20069;-57
2023/05/20 09:37:43;;;;;;;6.23;5.63;;;22.50;68.80;;;;;;6174340;22;20085;-56
2023/05/20 09:40:12;;;;;;;5.90;5.30;;;22.50;68.70;;;;;;6175642;22;20384;-58
2023/05/20 09:42:52;;;;;;;6.38;5.68;;;22.50;68.60;;;;;;6175101;23;20001;-57
2023/05/20 09:45:17;;;;;;;8.38;5.90;;;22.50;68.60;;;;;;6176999;22;20383;-57
2023/05/20 09:47:44;;;;;;;7.43;5.72;;;22.50;68.20;;;;;;6174460;22;20031;-55
2023/05/20 09:50:11;;;;;;;6.30;5.70;;;22.50;68.00;;;;;;6170584;22;20425;-57
2023/05/20 09:52:38;;;;;;;5.90;5.30;;;22.60;68.40;;;;;;6174981;22;20527;-58
2023/05/20 09:55:09;;;;;;;7.93;5.63;;;22.60;68.60;;;;;;6175755;22;20016;-57
2023/05/20 09:57:35;;;;;;;6.35;5.53;;;22.60;68.40;;;;;;6171406;22;20459;-57
2023/05/20 10:00:05;;;;;;;6.47;5.57;;;22.60;68.20;;;;;;6173634;22;20001;-56
2023/05/20 10:02:32;;;;;;;9.95;5.68;;;22.60;67.80;;;;;;6174840;22;20024;-57
2023/05/20 10:05:02;;;;;;;7.45;5.90;;;22.60;68.00;;;;;;6174225;22;20033;-58
2023/05/20 10:07:46;;;;;;;8.10;5.57;;;22.60;68.60;;;;;;6173387;22;20084;-56
2023/05/20 10:10:46;;;;;;;6.22;5.63;;;22.60;68.30;;;;;;6173098;22;20009;-58
2023/05/20 10:13:33;;;;;;;5.97;5.00;;;22.60;67.40;;;;;;6174228;22;20421;-57
2023/05/20 10:16:07;;;;;;;7.22;5.72;;;22.60;67.60;;;;;;6173925;23;20001;-57
2023/05/20 10:18:53;;;;;;;6.45;5.28;;;22.70;66.70;;;;;;6172110;22;20093;-57
2023/05/20 10:21:23;;;;;;;7.53;5.40;;;22.60;66.60;;;;;;6175207;22;20001;-57
2023/05/20 10:23:50;;;;;;;6.00;5.40;;;22.70;67.10;;;;;;6176633;22;20012;-57
2023/05/20 10:26:16;;;;;;;7.30;5.00;;;22.70;67.30;;;;;;6177445;22;20088;-57
2023/05/20 10:28:42;;;;;;;6.07;5.35;;;22.70;67.20;;;;;;6179708;22;20032;-57
2023/05/20 10:31:16;;;;;;;6.85;6.15;;;22.70;67.30;;;;;;6178130;22;20033;-55
2023/05/20 10:33:43;;;;;;;6.55;5.60;;;22.70;67.00;;;;;;6175045;22;20344;-58
2023/05/20 10:36:09;;;;;;;7.75;5.72;;;22.70;67.20;;;;;;6176864;22;20330;-57
2023/05/20 10:38:35;;;;;;;6.50;5.85;;;22.70;67.00;;;;;;6176784;22;20058;-56
2023/05/20 10:41:10;;;;;;;7.53;5.80;;;22.70;66.50;;;;;;6176640;22;20001;-57
2023/05/20 10:43:36;;;;;;;6.75;5.40;;;22.70;66.60;;;;;;6176683;22;20005;-58
2023/05/20 10:46:02;;;;;;;6.20;5.38;;;22.70;66.50;;;;;;6177028;22;20021;-56
2023/05/20 10:48:32;;;;;;;8.25;5.47;;;22.70;66.60;;;;;;6176654;22;20012;-56
2023/05/20 10:51:03;;;;;;;;;;;22.70;66.10;;;;;;6177194;22;20005;-57
2023/05/20 10:53:37;;;;;;;6.20;5.60;;;22.70;66.00;;;;;;6177112;22;19997;-57
2023/05/20 10:56:03;;;;;;;7.85;5.95;;;22.70;66.20;;;;;;6176932;22;20025;-56
2023/05/20 10:58:36;;;;;;;6.90;5.80;;;22.70;65.70;;;;;;6177055;22;20006;-58
2023/05/20 11:01:02;;;;;;;8.68;5.78;;;22.70;65.60;;;;;;6178414;22;20337;-55
2023/05/20 11:03:29;;;;;;;6.75;5.88;;;22.70;65.60;;;;;;6176818;22;20005;-57
2023/05/20 11:05:54;;;;;;;6.00;5.40;;;22.80;65.70;;;;;;6178188;22;20089;-58
2023/05/20 11:08:20;;;;;;;6.50;5.50;;;22.80;66.10;;;;;;6179539;22;20029;-56
2023/05/20 11:10:46;;;;;;;6.53;5.90;;;22.80;66.50;;;;;;6179418;22;20009;-55
2023/05/20 11:13:14;;;;;;;6.78;5.50;;;22.80;66.50;;;;;;6178175;22;20291;-57
2023/05/20 11:15:41;;;;;;;8.00;5.68;;;22.80;66.20;;;;;;6178740;22;20005;-57
2023/05/20 11:18:06;;;;;;;5.80;5.15;;;22.70;66.10;;;;;;6178270;22;20051;-57
2023/05/20 11:20:35;;;;;;;7.82;5.90;;;22.80;66.20;;;;;;6177224;23;20466;-58
2023/05/20 11:23:02;;;;;;;7.25;5.45;;;22.70;66.00;;;;;;6177779;23;20017;-58
2023/05/20 11:25:28;;;;;;;7.65;5.43;;;22.80;65.50;;;;;;6178767;22;20058;-57
2023/05/20 11:27:54;;;;;;;6.57;5.57;;;22.70;65.50;;;;;;6177552;22;20084;-57
2023/05/20 11:30:20;;;;;;;6.15;5.50;;;22.80;65.60;;;;;;6178086;22;20044;-57
2023/05/20 11:32:59;;;;;;;5.90;5.30;;;22.80;65.90;;;;;;6177962;22;20341;-58
2023/05/20 11:35:30;;;;;;;7.07;5.25;;;22.80;65.40;;;;;;6178564;22;20039;-55
2023/05/20 11:38:03;;;;;;;5.57;4.82;;;22.80;64.90;;;;;;6178965;23;20700;-57
2023/05/20 11:40:31;;;;;;;6.43;5.57;;;22.80;64.70;;;;;;6176972;22;20012;-58
2023/05/20 11:42:59;;;;;;;7.03;5.05;;;22.80;64.40;;;;;;6178280;22;20001;-58
2023/05/20 11:45:26;;;;;;;8.55;5.53;;;22.80;64.30;;;;;;6178746;22;20382;-58
2023/05/20 11:48:02;;;;;;;6.18;5.10;;;22.80;64.30;;;;;;6178164;22;20009;-58
2023/05/20 11:50:33;;;;;;;6.85;5.32;;;22.80;63.90;;;;;;6177990;22;20326;-57
2023/05/20 11:53:01;;;;;;;6.95;5.18;;;22.80;64.10;;;;;;6178707;22;20009;-57
2023/05/20 11:55:26;;;;;;;6.63;5.07;;;22.90;64.40;;;;;;6178371;22;20009;-57
2023/05/20 11:57:53;;;;;;;5.50;5.00;;;22.80;64.40;;;;;;6178066;22;20005;-57
2023/05/20 12:00:19;;;;;;;6.57;5.20;;;22.80;64.10;;;;;;6282100;22;20005;-58
2023/05/20 12:02:46;;;;;;;7.43;5.30;;;22.80;64.00;;;;;;6178588;22;20046;-57
2023/05/20 12:05:12;;;;;;;5.85;5.00;;;22.80;63.90;;;;;;6178680;22;20694;-57
2023/05/20 12:07:38;;;;;;;6.60;5.05;;;22.80;64.00;;;;;;6178635;22;20033;-56
2023/05/20 12:10:04;;;;;;;6.07;5.13;;;22.80;63.90;;;;;;6177425;22;20016;-57
2023/05/20 12:12:31;;;;;;;6.47;5.07;;;22.80;63.40;;;;;;6178672;22;20012;-57
2023/05/20 12:14:56;;;;;;;5.35;4.80;;;22.70;62.80;;;;;;6179092;22;20005;-57
2023/05/20 12:17:22;;;;;;;6.68;5.40;;;22.80;63.00;;;;;;6178775;22;20008;-57
2023/05/20 12:19:48;;;;;;;6.47;5.10;;;22.80;63.40;;;;;;6178372;22;20005;-58
2023/05/20 12:22:13;;;;;;;6.35;5.45;;;22.80;63.10;;;;;;6178030;23;20013;-58
2023/05/20 12:24:39;;;;;;;6.35;5.10;;;22.80;62.70;;;;;;6177692;22;20062;-57
2023/05/20 12:27:05;;;;;;;5.55;4.63;;;22.80;62.50;;;;;;6177849;22;20015;-57
2023/05/20 12:29:31;;;;;;;7.03;5.20;;;22.80;63.00;;;;;;6178627;22;20340;-57
2023/05/20 12:31:57;;;;;;;5.55;4.97;;;22.80;62.60;;;;;;6177976;22;20017;-57
2023/05/20 12:34:22;;;;;;;5.82;5.18;;;22.80;62.60;;;;;;6177979;22;20644;-56
2023/05/20 12:36:48;;;;;;;5.63;5.07;;;22.80;62.40;;;;;;6178157;22;20005;-56
2023/05/20 12:39:16;;;;;;;5.30;4.75;;;22.80;62.20;;;;;;6178136;22;20015;-58
2023/05/20 12:41:42;;;;;;;6.10;4.90;;;22.70;61.70;;;;;;6177496;22;20081;-57